createdAt,value
2022-12-11T00:14:26.659Z,246
2022-12-11T00:44:27.956Z,263
2022-12-11T01:14:25.621Z,268
2022-12-11T01:44:18.427Z,272
2022-12-11T02:14:15.780Z,279
2022-12-11T02:44:10.266Z,273
2022-12-11T03:15:13.507Z,283
2022-12-11T03:45:08.140Z,284
2022-12-11T04:15:07.408Z,293
2022-12-11T04:45:08.458Z,292
2022-12-11T05:15:06.126Z,300
2022-12-11T05:45:02.516Z,309
2022-12-11T06:14:58.297Z,315
2022-12-11T06:44:56.497Z,310
2022-12-11T07:14:56.626Z,320
2022-12-11T07:44:55.017Z,330
2022-12-11T08:14:51.019Z,338
2022-12-11T08:44:48.297Z,344
2022-12-11T09:14:44.902Z,349
2022-12-11T09:44:45.503Z,350
2022-12-11T10:14:41.855Z,347
2022-12-11T10:44:42.769Z,375
2022-12-11T11:14:46.642Z,349
2022-12-11T11:44:49.589Z,352
2022-12-11T12:14:49.736Z,352
2022-12-11T12:44:48.889Z,350
2022-12-11T13:14:43.993Z,357
2022-12-11T13:44:47.741Z,355
2022-12-11T14:14:43.991Z,354
2022-12-11T14:44:38.603Z,361
2022-12-11T15:44:46.708Z,358
2022-12-11T16:14:44.546Z,378
2022-12-11T16:45:52.478Z,371
2022-12-11T17:15:46.811Z,376
2022-12-11T17:45:41.014Z,381
2022-12-11T18:15:34.493Z,384
2022-12-11T18:45:28.534Z,357
2022-12-11T19:15:26.777Z,324
2022-12-11T19:45:24.276Z,310
2022-12-11T20:15:20.291Z,329
2022-12-11T20:45:22.143Z,318
2022-12-11T21:15:16.114Z,316
2022-12-11T21:45:18.362Z,318
2022-12-11T22:15:14.390Z,304
2022-12-11T22:45:13.500Z,288
2022-12-11T23:15:06.355Z,286
2022-12-11T23:45:02.308Z,288
